createdAt,value
2019-05-18T00:02:10.109Z,38.33
2019-05-18T00:04:39.373Z,39.33
2019-05-18T00:07:08.659Z,36.77
2019-05-18T00:09:37.912Z,40.15
2019-05-18T00:12:07.177Z,38.55
2019-05-18T00:14:36.455Z,39.30
2019-05-18T00:17:08.020Z,38.13
2019-05-18T00:19:36.704Z,36.35
2019-05-18T00:22:05.982Z,37.95
2019-05-18T00:24:35.251Z,40.85
2019-05-18T00:27:04.575Z,38.92
2019-05-18T00:29:35.458Z,37.95
2019-05-18T00:32:04.785Z,39.08
2019-05-18T00:34:34.095Z,38.95
2019-05-18T00:37:03.442Z,37.35
2019-05-18T00:39:32.730Z,37.25
2019-05-18T00:42:02.161Z,38.65
2019-05-18T00:44:31.438Z,36.63
2019-05-18T00:47:00.700Z,37.90
2019-05-18T00:49:29.973Z,37.70
2019-05-18T00:51:59.228Z,37.33
2019-05-18T00:54:28.495Z,38.53
2019-05-18T00:56:57.753Z,39.18
2019-05-18T00:59:27.025Z,39.45
2019-05-18T01:01:56.312Z,37.90
2019-05-18T01:04:25.594Z,38.02
2019-05-18T01:06:54.856Z,37.23
2019-05-18T01:09:24.148Z,39.65
2019-05-18T01:11:53.400Z,37.35
2019-05-18T01:14:22.661Z,38.63
2019-05-18T01:16:51.904Z,37.90
2019-05-18T01:19:21.170Z,37.75
2019-05-18T01:21:50.461Z,37.78
2019-05-18T01:24:19.897Z,38.28
2019-05-18T01:26:49.161Z,38.13
2019-05-18T01:29:18.422Z,38.92
2019-05-18T01:31:47.683Z,37.63
2019-05-18T01:34:16.954Z,36.75
2019-05-18T01:36:46.221Z,38.20
2019-05-18T01:39:15.471Z,37.00
2019-05-18T01:41:44.743Z,37.90
2019-05-18T01:44:14.002Z,36.95
2019-05-18T01:46:43.276Z,36.88
2019-05-18T01:49:12.513Z,36.25
2019-05-18T01:51:41.790Z,39.13
2019-05-18T01:54:11.058Z,35.50
2019-05-18T01:56:40.316Z,36.40
2019-05-18T01:59:09.584Z,37.48
2019-05-18T02:01:38.865Z,39.33
2019-05-18T02:04:08.120Z,36.25
2019-05-18T02:06:37.403Z,36.50
2019-05-18T02:09:08.373Z,37.03
2019-05-18T02:11:37.655Z,38.98
2019-05-18T02:14:06.908Z,38.15
2019-05-18T02:16:36.191Z,37.95
2019-05-18T02:19:05.446Z,37.83
2019-05-18T02:21:34.734Z,37.25
2019-05-18T02:24:05.082Z,36.98
2019-05-18T02:26:34.320Z,37.00
2019-05-18T02:29:03.591Z,38.02
2019-05-18T02:31:32.856Z,38.30
2019-05-18T02:34:02.147Z,37.05
2019-05-18T02:36:31.400Z,36.85
2019-05-18T02:39:00.657Z,37.38
2019-05-18T02:41:30.200Z,37.25
2019-05-18T02:43:59.478Z,38.33
2019-05-18T02:46:28.743Z,37.58
2019-05-18T02:48:58.030Z,38.33
2019-05-18T02:51:27.294Z,37.80
2019-05-18T02:53:56.646Z,36.25
2019-05-18T02:56:25.908Z,37.70
2019-05-18T02:58:55.185Z,36.75
2019-05-18T03:01:24.454Z,37.28
2019-05-18T03:03:53.727Z,37.23
2019-05-18T03:06:23.002Z,37.60
2019-05-18T03:08:52.267Z,37.45
2019-05-18T03:11:21.530Z,38.02
2019-05-18T03:13:50.805Z,37.28
2019-05-18T03:16:20.057Z,37.42
2019-05-18T03:19:06.695Z,37.95
2019-05-18T03:21:20.293Z,37.17
2019-05-18T03:23:49.560Z,36.25
2019-05-18T03:26:18.835Z,37.17
2019-05-18T03:28:48.094Z,36.40
2019-05-18T03:31:17.388Z,37.63
2019-05-18T03:33:46.615Z,36.23
2019-05-18T03:36:15.882Z,38.55
2019-05-18T03:38:45.158Z,38.25
2019-05-18T03:41:14.476Z,38.02
2019-05-18T03:43:43.748Z,37.73
2019-05-18T03:46:12.998Z,36.68
2019-05-18T03:48:42.275Z,37.63
2019-05-18T03:51:11.547Z,39.27
2019-05-18T03:53:40.845Z,36.13
2019-05-18T03:56:11.173Z,36.38
2019-05-18T03:58:40.441Z,36.83
2019-05-18T04:01:09.715Z,37.93
2019-05-18T04:03:39.152Z,35.50
2019-05-18T04:06:08.429Z,38.40
2019-05-18T04:08:37.691Z,38.67
2019-05-18T04:11:06.961Z,36.88
2019-05-18T04:13:36.213Z,37.85
2019-05-18T04:16:05.469Z,37.65
2019-05-18T04:18:34.755Z,38.13
2019-05-18T04:21:06.863Z,37.30
2019-05-18T04:23:37.287Z,35.78
2019-05-18T04:26:06.572Z,38.15
2019-05-18T04:28:35.837Z,38.80
2019-05-18T04:31:05.088Z,37.17
2019-05-18T04:33:34.357Z,37.28
2019-05-18T04:36:03.631Z,36.98
2019-05-18T04:38:32.888Z,38.42
2019-05-18T04:41:02.154Z,37.53
2019-05-18T04:43:31.434Z,37.83
2019-05-18T04:46:00.682Z,38.28
2019-05-18T04:48:29.978Z,37.93
2019-05-18T04:51:00.216Z,36.03
2019-05-18T04:53:29.480Z,37.65
2019-05-18T04:55:59.145Z,37.75
2019-05-18T04:58:28.411Z,37.03
2019-05-18T05:00:57.674Z,38.23
2019-05-18T05:03:26.965Z,37.38
2019-05-18T05:05:56.241Z,36.83
2019-05-18T05:08:25.497Z,35.35
2019-05-18T05:10:54.767Z,37.75
2019-05-18T05:13:25.651Z,37.25
2019-05-18T05:15:54.920Z,38.00
2019-05-18T05:18:24.181Z,37.85
2019-05-18T05:20:53.443Z,36.20
2019-05-18T05:23:22.704Z,37.30
2019-05-18T05:25:51.971Z,37.38
2019-05-18T05:28:21.274Z,36.15
2019-05-18T05:30:50.530Z,36.17
2019-05-18T05:33:19.802Z,36.70
2019-05-18T05:35:49.145Z,37.63
2019-05-18T05:38:18.404Z,37.58
2019-05-18T05:40:47.675Z,36.35
2019-05-18T05:43:16.956Z,36.98
2019-05-18T05:45:46.212Z,40.52
2019-05-18T05:48:15.489Z,38.60
2019-05-18T05:50:44.807Z,37.90
2019-05-18T05:53:14.071Z,39.73
2019-05-18T05:55:43.330Z,38.50
2019-05-18T05:58:12.602Z,39.85
2019-05-18T06:00:41.867Z,39.38
2019-05-18T06:03:11.131Z,38.45
2019-05-18T06:05:40.403Z,39.70
2019-05-18T06:08:09.750Z,38.85
2019-05-18T06:10:39.004Z,37.85
2019-05-18T06:13:08.300Z,39.75
2019-05-18T06:15:37.573Z,40.65
2019-05-18T06:18:06.838Z,39.13
2019-05-18T06:20:50.329Z,38.25
2019-05-18T06:23:07.094Z,40.20
2019-05-18T06:25:37.418Z,41.50
2019-05-18T06:28:06.683Z,40.63
2019-05-18T06:30:35.968Z,37.85
2019-05-18T06:33:06.322Z,40.05
2019-05-18T06:35:35.591Z,39.63
2019-05-18T06:38:05.134Z,40.30
2019-05-18T06:40:34.472Z,40.12
2019-05-18T06:43:03.736Z,39.95
2019-05-18T06:45:32.996Z,41.48
2019-05-18T06:48:02.300Z,39.10
2019-05-18T06:50:32.217Z,40.45
2019-05-18T06:53:01.613Z,39.67
2019-05-18T06:55:30.859Z,41.08
2019-05-18T06:58:00.119Z,41.00
2019-05-18T07:00:29.382Z,41.40
2019-05-18T07:02:58.641Z,41.45
2019-05-18T07:05:27.915Z,41.00
2019-05-18T07:07:57.219Z,43.48
2019-05-18T07:10:26.500Z,41.50
2019-05-18T07:12:55.768Z,41.28
2019-05-18T07:15:25.033Z,41.73
2019-05-18T07:17:54.382Z,42.95
2019-05-18T07:20:23.642Z,44.70
2019-05-18T07:22:52.964Z,42.10
2019-05-18T07:25:22.184Z,42.58
2019-05-18T07:27:51.802Z,40.30
2019-05-18T07:30:21.088Z,41.20
2019-05-18T07:32:50.348Z,46.68
2019-05-18T07:35:19.623Z,42.38
2019-05-18T07:37:48.880Z,44.90
2019-05-18T07:40:19.326Z,45.65
2019-05-18T07:42:48.577Z,46.88
2019-05-18T07:45:17.833Z,41.20
2019-05-18T07:47:47.109Z,44.48
2019-05-18T07:50:16.379Z,45.43
2019-05-18T07:52:45.655Z,44.85
2019-05-18T07:55:14.921Z,46.90
2019-05-18T07:57:44.184Z,44.73
2019-05-18T08:00:13.449Z,44.53
2019-05-18T08:02:42.779Z,43.42
2019-05-18T08:05:12.089Z,43.52
2019-05-18T08:07:41.368Z,43.30
2019-05-18T08:10:10.693Z,45.73
2019-05-18T08:12:39.984Z,45.73
2019-05-18T08:15:09.589Z,47.17
2019-05-18T08:17:38.836Z,46.13
2019-05-18T08:20:08.102Z,43.70
2019-05-18T08:22:37.373Z,46.45
2019-05-18T08:25:07.312Z,42.90
2019-05-18T08:27:36.588Z,45.88
2019-05-18T08:30:06.491Z,44.30
2019-05-18T08:32:35.694Z,47.60
2019-05-18T08:35:06.335Z,52.73
2019-05-18T08:37:35.681Z,74.00
2019-05-18T08:40:08.241Z,73.25
2019-05-18T08:42:38.157Z,75.97
2019-05-18T08:45:08.787Z,74.80
2019-05-18T08:47:38.087Z,78.60
2019-05-18T08:50:07.870Z,73.37
2019-05-18T08:52:37.159Z,75.05
2019-05-18T08:55:06.510Z,73.83
2019-05-18T08:57:35.782Z,73.10
2019-05-18T09:00:05.789Z,70.28
2019-05-18T09:02:35.085Z,72.75
2019-05-18T09:05:05.360Z,72.22
2019-05-18T09:07:34.569Z,73.67
2019-05-18T09:10:05.790Z,73.47
2019-05-18T09:12:35.059Z,74.75
2019-05-18T09:15:07.041Z,73.30
2019-05-18T09:17:36.319Z,78.15
2019-05-18T12:33:07.214Z,68.20
2019-05-18T12:35:36.485Z,65.97
2019-05-18T12:38:05.747Z,65.55
2019-05-18T12:40:35.038Z,64.75
2019-05-18T12:43:04.306Z,61.92
2019-05-18T12:45:33.585Z,62.70
2019-05-18T12:48:02.847Z,61.90
2019-05-18T12:50:32.104Z,61.15
2019-05-18T12:53:01.386Z,61.68
2019-05-18T12:55:30.634Z,64.25
2019-05-18T12:57:59.905Z,61.37
2019-05-18T13:02:03.036Z,94.10
2019-05-18T13:04:57.220Z,57.78
2019-05-18T13:07:26.382Z,77.95
2019-05-18T13:09:55.551Z,69.60
2019-05-18T13:12:24.706Z,55.80
2019-05-18T13:14:53.874Z,57.00
2019-05-18T13:17:23.017Z,56.77
2019-05-18T13:19:52.170Z,54.98
2019-05-18T13:22:21.314Z,55.25
2019-05-18T13:24:52.227Z,56.28
2019-05-18T13:27:21.726Z,55.50
2019-05-18T13:29:51.956Z,55.38
2019-05-18T13:32:22.198Z,53.80
2019-05-18T13:34:51.362Z,55.60
2019-05-18T13:37:20.535Z,55.05
2019-05-18T13:39:49.689Z,56.75
2019-05-18T13:42:18.842Z,55.30
2019-05-18T13:44:47.998Z,55.85
2019-05-18T13:47:17.143Z,54.60
2019-05-18T13:49:46.311Z,54.13
2019-05-18T13:52:15.480Z,53.80
2019-05-18T13:55:01.181Z,55.92
2019-05-18T13:57:15.491Z,52.95
2019-05-18T13:59:44.651Z,54.55
2019-05-18T14:02:13.791Z,53.28
2019-05-18T14:04:42.971Z,54.40
2019-05-18T14:07:12.119Z,52.40
2019-05-18T14:09:41.274Z,53.10
2019-05-18T14:12:10.497Z,53.30
2019-05-18T14:14:39.682Z,53.15
2019-05-18T14:17:08.816Z,52.75
2019-05-18T14:19:38.003Z,52.60
2019-05-18T14:22:07.135Z,52.78
2019-05-18T14:24:36.313Z,53.25
2019-05-18T14:27:05.479Z,53.38
2019-05-18T14:29:34.642Z,50.88
2019-05-18T14:32:03.814Z,54.65
2019-05-18T14:34:32.977Z,54.45
2019-05-18T14:37:03.114Z,55.60
2019-05-18T14:39:32.277Z,52.45
2019-05-18T14:42:01.534Z,53.10
2019-05-18T14:44:30.761Z,52.88
2019-05-18T14:47:00.046Z,54.30
2019-05-18T14:49:29.199Z,55.85
2019-05-18T14:51:58.375Z,53.87
2019-05-18T14:54:27.503Z,54.05
2019-05-18T14:56:56.654Z,55.17
2019-05-18T14:59:25.812Z,52.78
2019-05-18T15:04:04.374Z,57.10
2019-05-18T15:08:43.523Z,75.90
2019-05-18T15:11:12.704Z,73.62
2019-05-18T15:13:41.867Z,73.35
2019-05-18T15:16:11.038Z,73.97
2019-05-18T15:18:40.458Z,69.87
2019-05-18T15:21:09.710Z,63.15
2019-05-18T15:23:38.877Z,58.23
2019-05-18T15:26:08.049Z,62.80
2019-05-18T15:28:37.230Z,61.30
2019-05-18T15:31:06.393Z,87.75
2019-05-18T15:33:35.585Z,85.72
2019-05-18T15:36:04.775Z,85.60
2019-05-18T15:38:33.947Z,83.65
2019-05-18T15:41:03.101Z,84.30
2019-05-18T15:43:32.271Z,84.07
2019-05-18T15:46:01.442Z,84.80
2019-05-18T15:48:30.696Z,83.00
2019-05-18T15:50:59.880Z,84.75
2019-05-18T15:53:29.023Z,85.92
2019-05-18T15:56:05.851Z,87.17
2019-05-18T15:58:29.072Z,84.58
2019-05-18T16:00:58.310Z,84.35
2019-05-18T16:03:28.873Z,86.17
2019-05-18T16:05:58.975Z,85.22
2019-05-18T16:08:30.040Z,86.92
2019-05-18T16:10:59.196Z,82.33
2019-05-18T16:13:28.357Z,70.03
2019-05-18T16:16:00.606Z,72.15
2019-05-18T16:18:29.764Z,74.37
2019-05-18T16:21:00.621Z,75.10
2019-05-18T16:23:29.782Z,73.80
2019-05-18T16:25:58.956Z,73.25
2019-05-18T16:28:28.110Z,87.50
2019-05-18T16:30:57.375Z,86.17
2019-05-18T16:33:26.555Z,87.05
2019-05-18T16:35:55.717Z,81.97
2019-05-18T18:54:19.641Z,61.58
2019-05-18T18:56:48.794Z,59.50
2019-05-18T18:59:17.956Z,57.70
2019-05-18T19:01:48.079Z,59.88
2019-05-18T19:04:17.253Z,59.40
2019-05-18T19:06:46.419Z,61.40
2019-05-18T19:09:15.601Z,62.95
2019-05-18T19:11:44.756Z,59.53
2019-05-18T19:14:13.920Z,61.45
2019-05-18T19:16:43.085Z,61.50
2019-05-18T19:19:12.266Z,60.10
2019-05-18T19:21:41.414Z,64.12
2019-05-18T19:24:10.569Z,65.40
2019-05-18T19:26:39.737Z,62.45
2019-05-18T19:29:09.027Z,61.20
2019-05-18T19:31:38.179Z,61.18
2019-05-18T19:36:35.723Z,49.85
2019-05-18T19:39:06.164Z,38.13
2019-05-18T19:41:35.419Z,38.90
2019-05-18T19:44:04.573Z,34.75
2019-05-18T19:46:34.375Z,33.55
2019-05-18T19:49:03.536Z,32.10
2019-05-18T19:51:32.723Z,32.48
2019-05-18T19:54:01.862Z,37.53
2019-05-18T19:56:38.216Z,30.88
2019-05-18T19:59:01.879Z,30.27
2019-05-18T20:01:31.105Z,31.57
2019-05-18T20:04:00.258Z,30.88
2019-05-18T20:06:29.425Z,28.95
2019-05-18T20:08:58.587Z,29.23
2019-05-18T20:11:27.732Z,31.52
2019-05-18T20:13:56.892Z,29.48
2019-05-18T20:16:26.054Z,29.40
2019-05-18T20:18:55.209Z,29.37
2019-05-18T20:21:24.381Z,29.50
2019-05-18T20:23:53.538Z,28.87
2019-05-18T20:26:22.703Z,28.92
2019-05-18T20:28:51.849Z,29.23
2019-05-18T20:31:21.137Z,29.52
2019-05-18T20:33:50.262Z,29.10
2019-05-18T20:36:19.410Z,28.83
2019-05-18T20:38:48.571Z,29.02
2019-05-18T20:41:17.718Z,29.48
2019-05-18T20:43:46.885Z,27.60
2019-05-18T20:46:16.047Z,30.15
2019-05-18T20:48:45.207Z,27.98
2019-05-18T20:51:14.364Z,29.45
2019-05-18T20:53:44.590Z,28.67
2019-05-18T20:56:13.736Z,29.37
2019-05-18T20:58:42.912Z,28.40
2019-05-18T21:01:12.067Z,29.75
2019-05-18T21:03:42.302Z,29.12
2019-05-18T21:06:11.469Z,28.30
2019-05-18T21:08:40.624Z,51.05
2019-05-18T21:11:09.775Z,52.25
2019-05-18T21:13:38.985Z,36.25
2019-05-18T21:16:08.128Z,38.33
2019-05-18T21:18:37.295Z,35.88
2019-05-18T21:21:06.466Z,36.42
2019-05-18T21:23:35.622Z,35.08
2019-05-18T21:26:04.781Z,33.85
2019-05-18T21:28:33.928Z,35.73
2019-05-18T21:31:03.081Z,34.85
2019-05-18T21:33:32.238Z,34.92
2019-05-18T21:36:01.399Z,34.40
2019-05-18T21:38:31.731Z,34.15
2019-05-18T21:41:00.891Z,36.70
2019-05-18T21:43:30.049Z,34.65
2019-05-18T21:45:59.213Z,35.05
2019-05-18T21:48:28.358Z,34.10
2019-05-18T21:50:57.529Z,35.73
2019-05-18T21:53:26.684Z,33.85
2019-05-18T21:55:55.844Z,34.60
2019-05-18T21:58:25.016Z,34.65
2019-05-18T22:00:54.242Z,35.90
2019-05-18T22:03:23.442Z,33.90
2019-05-18T22:05:52.591Z,32.98
2019-05-18T22:08:21.768Z,35.88
2019-05-18T22:10:51.034Z,34.65
2019-05-18T22:13:20.194Z,35.68
2019-05-18T22:15:49.357Z,33.83
2019-05-18T22:18:24.463Z,33.35
2019-05-18T22:20:49.392Z,35.38
2019-05-18T22:23:18.535Z,33.78
2019-05-18T22:25:47.720Z,33.08
2019-05-18T22:28:16.864Z,31.75
2019-05-18T22:30:46.023Z,33.33
2019-05-18T22:33:15.183Z,34.88
2019-05-18T22:35:44.339Z,32.20
2019-05-18T22:38:13.504Z,35.80
2019-05-18T22:40:42.648Z,34.20
2019-05-18T22:43:11.806Z,32.75
2019-05-18T22:45:40.971Z,33.33
2019-05-18T22:48:10.185Z,31.27
2019-05-18T22:50:39.357Z,33.33
2019-05-18T22:53:08.520Z,35.55
2019-05-18T22:55:37.690Z,34.67
2019-05-18T22:58:06.852Z,32.78
2019-05-18T23:00:36.369Z,34.03
2019-05-18T23:03:05.598Z,33.73
2019-05-18T23:05:34.812Z,33.73
2019-05-18T23:08:04.000Z,34.00
2019-05-18T23:10:33.159Z,35.15
2019-05-18T23:13:02.316Z,32.80
2019-05-18T23:15:31.479Z,32.60
2019-05-18T23:18:00.631Z,33.95
2019-05-18T23:20:30.875Z,33.08
2019-05-18T23:23:00.052Z,33.55
2019-05-18T23:25:29.191Z,33.18
2019-05-18T23:27:58.349Z,34.67
2019-05-18T23:30:27.492Z,32.33
2019-05-18T23:32:56.650Z,32.33
2019-05-18T23:35:25.811Z,33.48
2019-05-18T23:37:54.988Z,34.18
2019-05-18T23:40:24.137Z,32.35
2019-05-18T23:42:53.298Z,34.03
2019-05-18T23:45:22.451Z,35.20
2019-05-18T23:47:51.793Z,33.25
2019-05-18T23:50:20.955Z,32.67
2019-05-18T23:52:50.105Z,33.28
2019-05-18T23:55:19.252Z,32.50
2019-05-18T23:57:48.421Z,33.00
